• Join FlightAware (Why Join?)
  • Login
  • US Flag 
08:31AM EDT


 

Airport Tracker/Info


-or-


 

Live Flight TrackerFlight Track Log ✈ AWE337 ✈ 23-Apr-2013 ✈ MMSD / SJD - KPHX

Flight Track Log - Related Links

Times and Time Zones

All times are in EDT time to prevent confusion due to time zone crossing. See the AWE337 flight status page for this flight to view local times or setup timezone preferences in your user account.

Time Position Orientation Groundspeed Altitude Reporting Facility
EDT Latitude Longitude Course Direction KTS MPH feet Rate Location/Type
06:16PM 23.3735 -109.9996 313° West  Level FlightAware Approximate
06:17PM 23.4572 -110.0905 317° Northwest  Level FlightAware Approximate
06:18PM 23.5476 -110.1711 344° North  Level FlightAware Approximate
06:19PM 23.6613 -110.2066 344° North  Level FlightAware Approximate
06:20PM 23.7749 -110.2421 344° North  Level FlightAware Approximate
06:21PM 23.8902 -110.2700 349° North  Level FlightAware Approximate
06:22PM 24.0054 -110.2991 345° North  Level FlightAware Approximate
06:23PM 24.1209 -110.3257 351° North  Level FlightAware Approximate
06:24PM 24.2377 -110.3452 351° North  Level FlightAware Approximate
06:25PM 24.3538 -110.3694 349° North  Level FlightAware Approximate
06:26PM 24.4699 -110.3940 350° North  Level FlightAware Approximate
06:27PM 24.5871 -110.4097 354° North  Level FlightAware Approximate
06:28PM 24.7044 -110.4257 351° North  Level FlightAware Approximate
06:29PM 24.8212 -110.4452 351° North  Level FlightAware Approximate
06:30PM 24.9381 -110.4647 351° North  Level FlightAware Approximate
06:31PM 25.0553 -110.4817 353° North  Level FlightAware Approximate
06:32PM 25.1725 -110.4985 353° North  Level FlightAware Approximate
06:33PM 25.2892 -110.5192 351° North  Level FlightAware Approximate
06:34PM 25.4060 -110.5389 353° North  Level FlightAware Approximate
06:35PM 25.5233 -110.5555 353° North  Level FlightAware Approximate
06:36PM 25.6405 -110.5722 353° North  Level FlightAware Approximate
06:37PM 25.7577 -110.5888 353° North  Level FlightAware Approximate
06:38PM 25.8750 -110.6055 353° North  Level FlightAware Approximate
06:39PM 25.9922 -110.6223 353° North  Level FlightAware Approximate
06:40PM 26.1094 -110.6391 353° North  Level FlightAware Approximate
06:41PM 26.2267 -110.6559 353° North  Level FlightAware Approximate
06:42PM 26.3439 -110.6727 353° North  Level FlightAware Approximate
06:43PM 26.4611 -110.6896 353° North  Level FlightAware Approximate
06:44PM 26.5783 -110.7072 352° North  Level FlightAware Approximate
06:45PM 26.6953 -110.7258 352° North  Level FlightAware Approximate
06:46PM 26.8123 -110.7446 352° North  Level FlightAware Approximate
06:47PM 26.9293 -110.7633 352° North  Level FlightAware Approximate
06:48PM 27.0463 -110.7821 352° North  Level FlightAware Approximate
06:49PM 27.1633 -110.8010 352° North  Level FlightAware Approximate
06:50PM 27.2803 -110.8198 352° North  Level FlightAware Approximate
06:51PM 27.3973 -110.8388 352° North  Level FlightAware Approximate
06:52PM 27.5144 -110.8566 353° North  Level FlightAware Approximate
06:53PM 27.6317 -110.8727 353° North  Level FlightAware Approximate
06:54PM 27.7491 -110.8889 353° North  Level FlightAware Approximate
06:55PM 27.8664 -110.9051 353° North  Level FlightAware Approximate
06:56PM 27.9838 -110.9201 355° North  Level FlightAware Approximate
06:57PM 28.1015 -110.9321 355° North  Level FlightAware Approximate
06:58PM 28.2192 -110.9442 355° North  Level FlightAware Approximate
06:59PM 28.3370 -110.9562 355° North  Level FlightAware Approximate
07:00PM 28.4547 -110.9683 355° North  Level FlightAware Approximate
07:01PM 28.5724 -110.9804 355° North  Level FlightAware Approximate
07:02PM 28.6901 -110.9926 355° North  Level FlightAware Approximate
07:03PM 28.8078 -111.0047 355° North  Level FlightAware Approximate
07:04PM 28.9255 -111.0169 355° North  Level FlightAware Approximate
07:05PM 29.0432 -111.0292 355° North  Level FlightAware Approximate
07:06PM 29.1612 -111.0300 North  Level FlightAware Approximate
07:07PM 29.2793 -111.0249 North  Level FlightAware Approximate
07:08PM 29.3974 -111.0198 North  Level FlightAware Approximate
07:09PM 29.5155 -111.0146 North  Level FlightAware Approximate
07:10PM 29.6336 -111.0095 North  Level FlightAware Approximate
07:11PM 29.7518 -111.0044 North  Level FlightAware Approximate
07:12PM 29.8699 -110.9992 North  Level FlightAware Approximate
07:13PM 29.9880 -110.9940 North  Level FlightAware Approximate
07:14PM 30.1061 -110.9889 North  Level FlightAware Approximate
07:15PM 30.2242 -110.9837 North  Level FlightAware Approximate
07:16PM 30.3423 -110.9785 North  Level FlightAware Approximate
07:17PM 30.4604 -110.9733 North  Level FlightAware Approximate
07:18PM 30.5785 -110.9680 North  Level FlightAware Approximate
07:19PM 30.6966 -110.9628 North  Level FlightAware Approximate
07:19PM 30.5539 -110.9856 North 449 517 32,600  Level Albuquerque Center
07:20PM 30.8148 -110.9575 North  Level FlightAware Approximate
07:20PM 30.6781 -110.9803 North 448 516 30,000  Level Albuquerque Center
07:21PM 30.9329 -110.9522 North  Level FlightAware Approximate
07:21PM 30.8053 -110.9747 North 454 522 29,900  Level Albuquerque Center
07:22PM 31.0510 -110.9500 North  Level FlightAware Approximate
07:22PM 30.9317 -110.9700 North 455 524 30,000  Level Albuquerque Center
07:23PM 31.1691 -110.9443 North  Level FlightAware Approximate
07:23PM 31.0833 -110.9619 North 455 524 30,000  Level Albuquerque Center
07:24PM 31.2871 -110.9364 North  Level FlightAware Approximate
07:24PM 31.2100 -110.9564 North 455 524 30,000  Level Albuquerque Center
07:25PM 31.3358 -110.9503 North 455 524 29,900 -60 Descending Albuquerque Center
07:26PM 31.4650 -110.9422 North 462 532 29,900 -1,200 Level Albuquerque Center
07:27PM 31.5989 -110.9353 North 455 524 27,500 -1,440 Descending Albuquerque Center
07:28PM 31.7178 -110.9353 360° North 446 513 27,000 -420 Descending Albuquerque Center
07:29PM 31.8342 -110.9300 North 428 493 26,700 -300 Descending Albuquerque Center
07:30PM 31.9522 -110.9231 North 414 476 26,400 -300 Descending Albuquerque Center
07:31PM 32.0664 -110.9172 North 412 474 26,100 -720 Descending Albuquerque Center
07:32PM 32.1761 -110.9350 352° North 399 459 25,000 -1,380 Descending Albuquerque Center
07:33PM 32.2986 -110.9692 347° North 383 441 23,300 -1,500 Descending Albuquerque Center
07:34PM 32.3983 -110.9967 347° North 371 427 22,000 -1,320 Descending Albuquerque Center
07:35PM 32.4975 -111.0222 348° North 366 421 20,600 -1,320 Descending Albuquerque Center
07:36PM 32.5939 -111.0506 346° North 361 415 19,400 -1,320 Descending Albuquerque Center
07:37PM 32.6875 -111.0775 346° North 351 404 17,900 -1,320 Descending Albuquerque Center
07:38PM 32.7781 -111.1025 347° North 339 390 16,700 -1,200 Descending Albuquerque Center
07:39PM 32.8683 -111.1286 346° North 336 387 15,500 -1,200 Descending Albuquerque Center
07:40PM 32.9150 -111.2189 302° West 324 373 14,300 -1,320 Descending Albuquerque Center
07:41PM 32.9664 -111.3253 300° West 312 359 12,900 -1,200 Descending Albuquerque Center
07:43PM 33.0053 -111.4103 299° West 296 341 11,900 -1,020 Descending Albuquerque Center
07:44PM 33.0464 -111.4886 302° West 282 325 10,900 -1,080 Descending Albuquerque Center
07:45PM 33.0892 -111.5667 303° West 282 325 9,800 -1,440 Descending Albuquerque Center
07:46PM 33.1619 -111.6075 335° Northwest 290 334 8,000 -960 Descending Albuquerque Center
07:47PM 33.2272 -111.6436 335° Northwest 261 300 7,900 -540 Descending Albuquerque Center
07:48PM 33.2789 -111.6872 325° Northwest 231 266 7,000 -1,080 Descending Albuquerque Center
07:49PM 33.3303 -111.7311 324° Northwest 229 264 5,800 -1,080 Descending Albuquerque Center
07:50PM 33.3842 -111.7719 328° Northwest 231 266 4,800 -1,080 Descending Albuquerque Center
07:51PM 33.4303 -111.8400 309° West 222 255 3,600 -1,200 Descending Albuquerque Center